createdAt,value
2022-12-04T00:01:22.011Z,-2.2
2022-12-04T00:03:52.601Z,-2.2
2022-12-04T00:06:23.262Z,-2.2
2022-12-04T00:11:34.047Z,-2.1
2022-12-04T00:14:06.684Z,-2.2
2022-12-04T00:16:27.819Z,-2.3
2022-12-04T00:18:58.677Z,-2.3
2022-12-04T00:21:29.262Z,-2.3
2022-12-04T00:24:09.928Z,-2.2
2022-12-04T00:26:40.741Z,-2.3
2022-12-04T00:29:11.362Z,-2.3
2022-12-04T00:31:41.972Z,-2.3
2022-12-04T00:34:12.838Z,-2.3
2022-12-04T00:36:53.467Z,-2.3
2022-12-04T00:39:24.056Z,-2.2
2022-12-04T00:41:54.690Z,-2.3
2022-12-04T00:44:25.292Z,-2.2
2022-12-04T00:47:05.946Z,-2.2
2022-12-04T00:52:16.716Z,-2.3
2022-12-04T00:54:47.306Z,-2.3
2022-12-04T00:57:17.884Z,-2.2
2022-12-04T00:59:48.515Z,-2.2
2022-12-04T01:02:19.133Z,-2.2
2022-12-04T01:04:49.875Z,-2.2
2022-12-04T01:07:30.717Z,-2.2
2022-12-04T01:10:01.488Z,-2.2
2022-12-04T01:12:32.162Z,-2.2
2022-12-04T01:15:02.844Z,-2.2
2022-12-04T01:17:33.517Z,-2.2
2022-12-04T01:20:04.137Z,-2.1
2022-12-04T01:22:44.769Z,-2.1
2022-12-04T01:25:15.395Z,-2.1
2022-12-04T01:27:46.010Z,-2.1
2022-12-04T01:32:46.790Z,-2.1
2022-12-04T01:35:27.406Z,-2.1
2022-12-04T01:37:58.034Z,-2.1
2022-12-04T01:40:28.664Z,-2.1
2022-12-04T01:42:59.233Z,-2.1
2022-12-04T01:45:29.850Z,-2.1
2022-12-04T01:48:00.641Z,-2.1
2022-12-04T01:50:41.335Z,-2.1
2022-12-04T01:53:11.932Z,-2.0
2022-12-04T01:55:42.549Z,-2.1
2022-12-04T01:58:13.127Z,-2.1
2022-12-04T02:00:45.550Z,-2.1
2022-12-04T02:03:10.022Z,-2.0
2022-12-04T02:05:50.715Z,-2.1
2022-12-04T02:08:21.382Z,-2.1
2022-12-04T02:13:32.195Z,-2.0
2022-12-04T02:16:02.808Z,-2.0
2022-12-04T02:18:33.569Z,-2.0
2022-12-04T02:21:14.179Z,-2.0
2022-12-04T02:23:44.797Z,-2.0
2022-12-04T02:26:15.433Z,-2.0
2022-12-04T02:28:46.065Z,-2.0
2022-12-04T02:31:16.717Z,-2.0
2022-12-04T02:33:47.363Z,-2.0
2022-12-04T02:36:27.991Z,-2.0
2022-12-04T02:38:58.615Z,-2.0
2022-12-04T02:41:29.220Z,-2.0
2022-12-04T02:43:59.821Z,-2.0
2022-12-04T02:46:30.451Z,-2.0
2022-12-04T02:49:11.089Z,-2.1
2022-12-04T02:54:11.880Z,-2.0
2022-12-04T02:56:42.460Z,-2.0
2022-12-04T02:59:13.068Z,-2.0
2022-12-04T03:01:43.708Z,-2.0
2022-12-04T03:04:24.537Z,-2.0
2022-12-04T03:06:55.150Z,-2.0
2022-12-04T03:09:25.772Z,-2.0
2022-12-04T03:11:56.401Z,-2.0
2022-12-04T03:14:27.040Z,-2.1
2022-12-04T03:16:57.679Z,-2.0
2022-12-04T03:19:38.405Z,-2.0
2022-12-04T03:22:08.996Z,-1.9
2022-12-04T03:24:39.603Z,-2.0
2022-12-04T03:27:10.230Z,-2.0
2022-12-04T03:29:41.066Z,-2.0
2022-12-04T03:34:51.848Z,-2.0
2022-12-04T03:37:22.582Z,-2.0
2022-12-04T03:39:53.431Z,-2.1
2022-12-04T03:42:24.144Z,-2.1
2022-12-04T03:44:54.741Z,-2.1
2022-12-04T03:47:35.336Z,-2.1
2022-12-04T03:50:05.957Z,-2.0
2022-12-04T03:52:36.557Z,-2.0
2022-12-04T03:55:07.247Z,-2.1
2022-12-04T03:57:37.859Z,-2.1
2022-12-04T04:00:08.476Z,-2.1
2022-12-04T04:02:49.114Z,-2.0
2022-12-04T04:05:19.991Z,-2.0
2022-12-04T04:07:50.666Z,-2.1
2022-12-04T04:10:21.457Z,-2.1
2022-12-04T04:15:22.216Z,-2.0
2022-12-04T04:18:03.141Z,-2.0
2022-12-04T04:20:33.783Z,-2.0
2022-12-04T04:23:04.381Z,-2.0
2022-12-04T04:25:34.995Z,-2.0
2022-12-04T04:28:05.639Z,-2.0
2022-12-04T04:30:36.231Z,-2.0
2022-12-04T04:33:16.999Z,-2.0
2022-12-04T04:35:47.609Z,-1.9
2022-12-04T04:38:18.220Z,-2.0
2022-12-04T04:40:48.840Z,-2.0
2022-12-04T04:43:19.437Z,-2.0
2022-12-04T04:45:50.047Z,-2.1
2022-12-04T04:48:30.796Z,-1.9
2022-12-04T04:51:01.415Z,-2.0
2022-12-04T04:56:02.220Z,-2.1
2022-12-04T04:58:32.825Z,-2.1
2022-12-04T05:01:13.498Z,-2.1
2022-12-04T05:03:44.236Z,-2.1
2022-12-04T05:06:14.837Z,-2.1
2022-12-04T05:08:55.477Z,-2.1
2022-12-04T05:11:26.098Z,-2.0
2022-12-04T05:13:56.720Z,-2.0
2022-12-04T05:16:37.387Z,-2.1
2022-12-04T05:19:02.075Z,-2.0
2022-12-04T05:21:32.707Z,-2.0
2022-12-04T05:24:03.317Z,-2.0
2022-12-04T05:26:34.040Z,-2.0
2022-12-04T05:29:04.661Z,-2.0
2022-12-04T05:36:45.567Z,-2.0
2022-12-04T05:39:16.190Z,-2.0
2022-12-04T05:41:46.817Z,-2.0
2022-12-04T05:44:17.403Z,-1.9
2022-12-04T05:46:58.046Z,-2.0
2022-12-04T05:49:28.879Z,-2.0
2022-12-04T05:51:59.505Z,-1.9
2022-12-04T05:54:30.091Z,-1.9
2022-12-04T05:57:00.709Z,-2.0
2022-12-04T05:59:44.439Z,-2.0
2022-12-04T06:02:15.669Z,-2.0
2022-12-04T06:04:46.686Z,-2.0
2022-12-04T06:07:17.302Z,-2.0
2022-12-04T06:09:48.071Z,-2.0
2022-12-04T06:12:19.046Z,-2.0
2022-12-04T06:17:29.784Z,-2.0
2022-12-04T06:20:00.684Z,-1.9
2022-12-04T06:22:32.509Z,-1.9
2022-12-04T06:25:03.121Z,-1.9
2022-12-04T06:27:33.750Z,-1.9
2022-12-04T06:30:14.347Z,-1.8
2022-12-04T06:32:44.953Z,-1.9
2022-12-04T06:35:15.565Z,-1.9
2022-12-04T06:37:46.184Z,-1.9
2022-12-04T06:40:16.806Z,-1.9
2022-12-04T06:42:47.407Z,-1.8
2022-12-04T06:45:28.071Z,-1.9
2022-12-04T06:47:58.958Z,-1.9
2022-12-04T06:50:29.588Z,-1.9
2022-12-04T06:53:04.973Z,-1.9
2022-12-04T06:58:18.683Z,-1.9
2022-12-04T07:00:49.319Z,-1.9
2022-12-04T07:03:20.144Z,-1.9
2022-12-04T07:05:43.850Z,-1.8
2022-12-04T07:08:14.491Z,-1.8
2022-12-04T07:10:45.138Z,-1.9
2022-12-04T07:13:29.785Z,-1.9
2022-12-04T07:16:00.424Z,-1.8
2022-12-04T07:18:31.158Z,-1.8
2022-12-04T07:21:01.740Z,-1.8
2022-12-04T07:23:32.338Z,-1.8
2022-12-04T07:26:02.982Z,-1.7
2022-12-04T07:28:43.576Z,-1.7
2022-12-04T07:31:14.224Z,-1.8
2022-12-04T07:33:45.100Z,-1.8
2022-12-04T07:38:45.867Z,-1.7
2022-12-04T07:41:16.474Z,-1.7
2022-12-04T07:43:57.069Z,-1.7
2022-12-04T07:46:27.807Z,-1.7
2022-12-04T07:48:58.621Z,-1.7
2022-12-04T07:51:29.260Z,-1.6
2022-12-04T07:54:03.426Z,-1.6
2022-12-04T07:56:34.714Z,-1.6
2022-12-04T07:59:15.368Z,-1.6
2022-12-04T08:01:46.075Z,-1.6
2022-12-04T08:04:16.974Z,-1.6
2022-12-04T08:06:47.679Z,-1.5
2022-12-04T08:09:18.286Z,-1.4
2022-12-04T08:11:48.883Z,-1.4
2022-12-04T08:14:29.467Z,-1.5
2022-12-04T08:19:30.227Z,-1.3
2022-12-04T08:22:00.826Z,-1.3
2022-12-04T08:24:35.532Z,-1.3
2022-12-04T08:27:06.154Z,-1.3
2022-12-04T08:29:46.760Z,-1.2
2022-12-04T08:32:17.886Z,-1.3
2022-12-04T08:34:52.556Z,-1.1
2022-12-04T08:37:14.711Z,-1.2
2022-12-04T08:39:45.285Z,-1.2
2022-12-04T08:42:26.131Z,-1.1
2022-12-04T08:47:26.871Z,-1.1
2022-12-04T08:50:02.716Z,-1.1
2022-12-04T08:52:33.317Z,-1.1
2022-12-04T08:55:03.926Z,-1.1
2022-12-04T09:00:14.727Z,-0.9
2022-12-04T09:02:45.383Z,-0.9
2022-12-04T09:05:16.023Z,-0.9
2022-12-04T09:07:46.669Z,-0.9
2022-12-04T09:10:17.554Z,-0.9
2022-12-04T09:12:58.254Z,-1.0
2022-12-04T09:15:28.885Z,-0.9
2022-12-04T09:17:59.684Z,-0.9
2022-12-04T09:20:30.326Z,-0.9
2022-12-04T09:23:04.246Z,-0.9
2022-12-04T09:25:25.074Z,-0.9
2022-12-04T09:28:05.670Z,-0.8
2022-12-04T09:33:16.399Z,-0.8
2022-12-04T09:35:47.030Z,-0.8
2022-12-04T09:40:57.802Z,-0.7
2022-12-04T09:43:28.400Z,-0.7
2022-12-04T09:45:59.105Z,-0.5
2022-12-04T09:48:30.046Z,-0.5
2022-12-04T09:51:00.653Z,-0.6
2022-12-04T09:53:31.247Z,-0.6
2022-12-04T09:56:11.864Z,-0.5
2022-12-04T09:58:42.465Z,-0.5
2022-12-04T10:01:13.343Z,-0.5
2022-12-04T10:03:44.174Z,-0.5
2022-12-04T10:06:06.978Z,-0.5
2022-12-04T10:08:37.571Z,-0.4
2022-12-04T10:11:32.431Z,-0.4
2022-12-04T10:13:53.434Z,-0.4
2022-12-04T10:16:24.082Z,-0.4
2022-12-04T10:21:24.940Z,-0.3
2022-12-04T10:23:55.555Z,-0.3
2022-12-04T10:26:36.188Z,-0.3
2022-12-04T10:29:06.782Z,-0.2
2022-12-04T10:31:37.479Z,-0.1
2022-12-04T10:34:08.209Z,-0.1
2022-12-04T10:36:38.882Z,-0.1
2022-12-04T10:39:19.521Z,-0.1
2022-12-04T10:41:50.142Z,0.0
2022-12-04T10:44:20.728Z,0.1
2022-12-04T10:46:51.413Z,0.0
2022-12-04T10:49:22.475Z,0.2
2022-12-04T10:51:53.112Z,0.2
2022-12-04T10:54:33.738Z,0.1
2022-12-04T10:57:04.350Z,0.2
2022-12-04T11:02:06.865Z,0.2
2022-12-04T11:04:38.525Z,0.3
2022-12-04T11:07:09.150Z,0.3
2022-12-04T11:09:49.827Z,0.4
2022-12-04T11:12:20.435Z,0.3
2022-12-04T11:14:51.114Z,0.5
2022-12-04T11:17:21.776Z,0.5
2022-12-04T11:19:52.368Z,0.5
2022-12-04T11:22:22.966Z,0.5
2022-12-04T11:25:03.576Z,0.6
2022-12-04T11:27:34.256Z,0.5
2022-12-04T11:30:04.877Z,0.5
2022-12-04T11:32:35.482Z,0.6
2022-12-04T11:35:06.105Z,0.6
2022-12-04T11:37:46.733Z,0.6
2022-12-04T11:42:47.510Z,0.7
2022-12-04T11:45:18.122Z,0.7
2022-12-04T11:47:48.703Z,0.8
2022-12-04T11:50:19.480Z,0.8
2022-12-04T11:53:00.114Z,0.8
2022-12-04T11:55:30.796Z,0.8
2022-12-04T11:58:01.406Z,0.8
2022-12-04T12:00:32.026Z,0.9
2022-12-04T12:03:02.730Z,1.0
2022-12-04T12:05:33.896Z,0.9
2022-12-04T12:08:14.501Z,1.1
2022-12-04T12:13:15.268Z,1.1
2022-12-04T12:18:26.058Z,1.2
2022-12-04T12:23:36.799Z,1.2
2022-12-04T12:26:07.427Z,1.2
2022-12-04T12:28:38.031Z,1.2
2022-12-04T12:31:08.651Z,1.3
2022-12-04T12:33:39.393Z,1.3
2022-12-04T12:36:10.011Z,1.3
2022-12-04T12:38:50.666Z,1.3
2022-12-04T12:41:21.295Z,1.2
2022-12-04T12:43:51.901Z,1.3
2022-12-04T12:46:22.762Z,1.3
2022-12-04T12:48:58.070Z,1.3
2022-12-04T12:51:30.282Z,1.3
2022-12-04T12:54:01.250Z,1.3
2022-12-04T12:56:31.887Z,1.3
2022-12-04T12:58:59.583Z,1.3
2022-12-04T13:04:10.335Z,1.2
2022-12-04T13:06:51.049Z,1.3
2022-12-04T13:09:21.741Z,1.4
2022-12-04T13:11:52.359Z,1.4
2022-12-04T13:14:22.966Z,1.3
2022-12-04T13:16:49.185Z,1.4
2022-12-04T13:19:20.003Z,1.4
2022-12-04T13:22:00.622Z,1.4
2022-12-04T13:24:31.210Z,1.4
2022-12-04T13:27:01.841Z,1.4
2022-12-04T13:29:32.468Z,1.5
2022-12-04T13:32:03.071Z,1.5
2022-12-04T13:34:37.683Z,1.5
2022-12-04T13:37:18.297Z,1.5
2022-12-04T13:39:48.904Z,1.5
2022-12-04T13:44:49.766Z,1.5
2022-12-04T13:47:20.478Z,1.5
2022-12-04T13:50:05.017Z,1.6
2022-12-04T13:52:25.776Z,1.5
2022-12-04T13:54:56.767Z,1.6
2022-12-04T13:57:27.429Z,1.6
2022-12-04T13:59:58.043Z,1.6
2022-12-04T14:02:28.796Z,1.7
2022-12-04T14:05:09.718Z,1.6
2022-12-04T14:07:40.339Z,1.6
2022-12-04T14:10:17.202Z,1.7
2022-12-04T14:12:47.792Z,1.6
2022-12-04T14:15:18.395Z,1.7
2022-12-04T14:17:49.038Z,1.6
2022-12-04T14:20:29.674Z,1.7
2022-12-04T14:25:30.388Z,1.6
2022-12-04T14:28:00.983Z,1.7
2022-12-04T14:30:31.646Z,1.7
2022-12-04T14:33:02.496Z,1.7
2022-12-04T14:35:43.100Z,1.8
2022-12-04T14:38:13.747Z,1.8
2022-12-04T14:40:44.353Z,1.8
2022-12-04T14:43:14.978Z,1.8
2022-12-04T14:45:45.625Z,1.8
2022-12-04T14:48:26.498Z,1.8
2022-12-04T14:50:57.130Z,1.8
2022-12-04T14:55:57.922Z,1.8
2022-12-04T14:58:28.515Z,1.8
2022-12-04T15:00:59.109Z,1.8
2022-12-04T15:06:15.784Z,1.8
2022-12-04T15:08:46.374Z,1.8
2022-12-04T15:11:16.988Z,1.9
2022-12-04T15:13:47.605Z,1.9
2022-12-04T15:16:18.292Z,1.8
2022-12-04T15:18:59.131Z,1.8
2022-12-04T15:21:29.744Z,1.8
2022-12-04T15:24:00.356Z,1.7
2022-12-04T15:26:30.984Z,1.7
2022-12-04T15:29:01.803Z,1.7
2022-12-04T15:31:32.451Z,1.7
2022-12-04T15:34:13.172Z,1.7
2022-12-04T15:36:43.881Z,1.7
2022-12-04T15:39:14.510Z,1.7
2022-12-04T15:41:45.175Z,1.7
2022-12-04T15:46:46.022Z,1.7
2022-12-04T15:49:26.819Z,1.7
2022-12-04T15:51:57.682Z,1.8
2022-12-04T15:54:28.303Z,1.8
2022-12-04T15:56:58.913Z,1.8
2022-12-04T15:59:29.507Z,1.8
2022-12-04T16:02:10.206Z,1.8
2022-12-04T16:04:45.333Z,1.8
2022-12-04T16:07:08.107Z,1.8
2022-12-04T16:09:38.774Z,1.8
2022-12-04T16:12:13.863Z,1.8
2022-12-04T16:14:44.460Z,1.8
2022-12-04T16:17:25.421Z,1.8
2022-12-04T16:19:56.021Z,1.8
2022-12-04T16:22:26.605Z,1.8
2022-12-04T16:27:27.378Z,1.8
2022-12-04T16:29:57.993Z,1.8
2022-12-04T16:32:38.585Z,1.8
2022-12-04T16:35:09.193Z,1.8
2022-12-04T16:37:39.793Z,1.8
2022-12-04T16:40:10.438Z,1.8
2022-12-04T16:42:41.037Z,1.8
2022-12-04T16:45:11.625Z,1.8
2022-12-04T16:47:52.235Z,1.7
2022-12-04T16:50:22.850Z,1.7
2022-12-04T16:52:53.453Z,1.7
2022-12-04T16:55:24.100Z,1.7
2022-12-04T16:57:54.694Z,1.6
2022-12-04T17:00:25.301Z,1.7
2022-12-04T17:03:05.920Z,1.6
2022-12-04T17:08:06.749Z,1.6
2022-12-04T17:10:37.538Z,1.6
2022-12-04T17:13:08.133Z,1.5
2022-12-04T17:15:38.754Z,1.5
2022-12-04T17:18:21.208Z,1.5
2022-12-04T17:20:52.101Z,1.5
2022-12-04T17:23:22.698Z,1.5
2022-12-04T17:25:53.318Z,1.6
2022-12-04T17:28:23.934Z,1.6
2022-12-04T17:31:04.612Z,1.6
2022-12-04T17:33:35.404Z,1.6
2022-12-04T17:36:06.013Z,1.6
2022-12-04T17:38:36.614Z,1.6
2022-12-04T17:41:07.244Z,1.6
2022-12-04T17:43:37.891Z,1.6
2022-12-04T17:48:48.648Z,1.6
2022-12-04T17:51:25.779Z,1.7
2022-12-04T17:53:56.415Z,1.7
2022-12-04T17:56:27.048Z,1.7
2022-12-04T17:58:51.499Z,1.7
2022-12-04T18:01:32.212Z,1.7
2022-12-04T18:04:02.874Z,1.7
2022-12-04T18:06:33.477Z,1.7
2022-12-04T18:09:04.067Z,1.7
2022-12-04T18:11:44.670Z,1.7
2022-12-04T18:14:15.268Z,1.7
2022-12-04T18:16:55.926Z,1.7
2022-12-04T18:19:26.598Z,1.7
2022-12-04T18:21:57.169Z,1.7
2022-12-04T18:24:27.764Z,1.7
2022-12-04T18:29:38.555Z,1.7
2022-12-04T18:32:09.628Z,1.7
2022-12-04T18:34:40.274Z,1.7
2022-12-04T18:37:10.858Z,1.7
2022-12-04T18:39:41.442Z,1.7
2022-12-04T18:42:06.638Z,1.7
2022-12-04T18:44:47.257Z,1.7
2022-12-04T18:47:17.855Z,1.7
2022-12-04T18:49:48.480Z,1.7
2022-12-04T18:52:19.661Z,1.7
2022-12-04T18:54:50.264Z,1.7
2022-12-04T18:57:20.883Z,1.7
2022-12-04T19:00:01.499Z,1.7
2022-12-04T19:02:32.174Z,1.7
2022-12-04T19:05:02.983Z,1.7
2022-12-04T19:10:11.530Z,1.7
2022-12-04T19:12:42.411Z,1.7
2022-12-04T19:15:23.035Z,1.6
2022-12-04T19:17:53.655Z,1.6
2022-12-04T19:20:24.267Z,1.6
2022-12-04T19:22:54.869Z,1.6
2022-12-04T19:25:25.448Z,1.6
2022-12-04T19:27:56.206Z,1.6
2022-12-04T19:30:36.880Z,1.7
2022-12-04T19:33:07.481Z,1.7
2022-12-04T19:35:38.068Z,1.6
2022-12-04T19:38:08.672Z,1.6
2022-12-04T19:40:39.286Z,1.5
2022-12-04T19:43:19.897Z,1.4
2022-12-04T19:45:50.561Z,1.3
2022-12-04T19:50:51.522Z,1.1
2022-12-04T19:53:22.155Z,1.0
2022-12-04T19:55:49.594Z,0.9
2022-12-04T19:58:30.202Z,0.9
2022-12-04T20:01:00.874Z,0.8
2022-12-04T20:03:31.660Z,0.7
2022-12-04T20:06:02.268Z,0.8
2022-12-04T20:08:32.831Z,0.7
2022-12-04T20:11:03.438Z,0.6
2022-12-04T20:13:44.055Z,0.6
2022-12-04T20:16:14.737Z,0.6
2022-12-04T20:18:45.692Z,0.5
2022-12-04T20:21:16.326Z,0.5
2022-12-04T20:23:46.947Z,0.5
2022-12-04T20:26:17.582Z,0.5
2022-12-04T20:31:28.368Z,0.4
2022-12-04T20:33:58.970Z,0.4
2022-12-04T20:36:29.564Z,0.4
2022-12-04T20:39:00.165Z,0.4
2022-12-04T20:41:30.913Z,0.4
2022-12-04T20:44:11.539Z,0.3
2022-12-04T20:46:42.283Z,0.3
2022-12-04T20:49:17.308Z,0.3
2022-12-04T20:51:50.935Z,0.3
2022-12-04T20:54:21.561Z,0.3
2022-12-04T20:56:58.299Z,0.2
2022-12-04T20:59:28.893Z,0.3
2022-12-04T21:01:59.577Z,0.2
2022-12-04T21:04:30.444Z,0.3
2022-12-04T21:07:01.072Z,0.2
2022-12-04T21:12:11.805Z,0.3
2022-12-04T21:14:42.415Z,0.2
2022-12-04T21:17:13.037Z,0.2
2022-12-04T21:19:43.629Z,0.2
2022-12-04T21:22:18.211Z,0.1
2022-12-04T21:24:48.820Z,0.1
2022-12-04T21:27:29.468Z,0.1
2022-12-04T21:30:00.086Z,0.1
2022-12-04T21:32:30.696Z,0.1
2022-12-04T21:35:01.292Z,0.1
2022-12-04T21:37:31.885Z,0.1
2022-12-04T21:40:02.621Z,0.0
2022-12-04T21:42:43.324Z,0.0
2022-12-04T21:45:14.003Z,0.0
2022-12-04T21:47:44.591Z,0.0
2022-12-04T21:52:45.353Z,0.0
2022-12-04T21:55:25.979Z,0.0
2022-12-04T21:57:56.567Z,-0.1
2022-12-04T22:00:27.168Z,-0.1
2022-12-04T22:02:57.818Z,-0.1
2022-12-04T22:05:28.609Z,0.0
2022-12-04T22:07:59.236Z,-0.1
2022-12-04T22:10:40.069Z,-0.1
2022-12-04T22:13:10.651Z,-0.1
2022-12-04T22:15:41.383Z,-0.1
2022-12-04T22:18:12.217Z,-0.1
2022-12-04T22:20:42.881Z,-0.1
2022-12-04T22:23:13.553Z,-0.1
2022-12-04T22:25:54.163Z,-0.1
2022-12-04T22:28:24.777Z,-0.1
2022-12-04T22:33:25.514Z,-0.1
2022-12-04T22:35:56.336Z,-0.1
2022-12-04T22:38:26.941Z,-0.1
2022-12-04T22:41:11.101Z,-0.1
2022-12-04T22:43:41.734Z,-0.1
2022-12-04T22:46:12.367Z,-0.2
2022-12-04T22:48:43.271Z,-0.2
2022-12-04T22:51:14.099Z,-0.2
2022-12-04T22:53:44.697Z,-0.2
2022-12-04T22:56:25.327Z,-0.2
2022-12-04T22:58:55.901Z,-0.2
2022-12-04T23:01:31.516Z,-0.2
2022-12-04T23:04:02.133Z,-0.2
2022-12-04T23:06:32.771Z,-0.2
2022-12-04T23:09:13.390Z,-0.2
2022-12-04T23:14:14.158Z,-0.2
2022-12-04T23:16:44.870Z,-0.2
2022-12-04T23:19:15.921Z,-0.2
2022-12-04T23:21:47.942Z,-0.2
2022-12-04T23:24:21.350Z,-0.2
2022-12-04T23:26:51.998Z,-0.2
2022-12-04T23:29:51.246Z,-0.2
2022-12-04T23:31:52.727Z,-0.2
2022-12-04T23:34:23.568Z,-0.3
2022-12-04T23:36:54.172Z,-0.3
2022-12-04T23:39:34.803Z,-0.3
2022-12-04T23:42:05.623Z,-0.2
2022-12-04T23:44:36.223Z,-0.3
2022-12-04T23:47:16.955Z,-0.2
2022-12-04T23:49:47.564Z,-0.3
2022-12-04T23:54:58.580Z,-0.3
2022-12-04T23:57:29.227Z,-0.3
2022-12-04T23:59:59.861Z,-0.3
